sensor_id;sensor_type;location;lat;lon;timestamp;P1;durP1;ratioP1;P2;durP2;ratioP2
29238;SDS011;16267;48.194;11.546;2022-12-22T00:08:44;6.32;;;3.92;;
29238;SDS011;16267;48.194;11.546;2022-12-22T00:11:29;5.80;;;3.78;;
29238;SDS011;16267;48.194;11.546;2022-12-22T00:14:13;5.72;;;3.65;;
29238;SDS011;16267;48.194;11.546;2022-12-22T00:16:58;5.88;;;3.92;;
29238;SDS011;16267;48.194;11.546;2022-12-22T00:19:44;6.22;;;4.95;;
29238;SDS011;16267;48.194;11.546;2022-12-22T00:22:28;6.35;;;4.53;;
29238;SDS011;16267;48.194;11.546;2022-12-22T00:25:13;9.93;;;4.68;;
29238;SDS011;16267;48.194;11.546;2022-12-22T00:28:00;7.60;;;4.68;;
29238;SDS011;16267;48.194;11.546;2022-12-22T00:30:53;5.93;;;4.30;;
29238;SDS011;16267;48.194;11.546;2022-12-22T00:33:37;6.50;;;4.40;;
29238;SDS011;16267;48.194;11.546;2022-12-22T00:36:22;6.95;;;4.40;;
29238;SDS011;16267;48.194;11.546;2022-12-22T00:39:13;7.68;;;4.43;;
29238;SDS011;16267;48.194;11.546;2022-12-22T00:41:57;7.90;;;4.15;;
29238;SDS011;16267;48.194;11.546;2022-12-22T00:44:42;6.43;;;4.65;;
29238;SDS011;16267;48.194;11.546;2022-12-22T00:47:27;5.80;;;4.25;;
29238;SDS011;16267;48.194;11.546;2022-12-22T00:50:13;6.55;;;4.47;;
29238;SDS011;16267;48.194;11.546;2022-12-22T00:52:58;7.63;;;4.30;;
29238;SDS011;16267;48.194;11.546;2022-12-22T00:55:44;6.07;;;4.10;;
29238;SDS011;16267;48.194;11.546;2022-12-22T00:58:29;6.25;;;4.22;;
29238;SDS011;16267;48.194;11.546;2022-12-22T01:01:13;7.28;;;3.95;;
29238;SDS011;16267;48.194;11.546;2022-12-22T01:03:58;4.82;;;3.70;;
29238;SDS011;16267;48.194;11.546;2022-12-22T01:06:43;6.38;;;4.10;;
29238;SDS011;16267;48.194;11.546;2022-12-22T01:09:28;5.97;;;4.25;;
29238;SDS011;16267;48.194;11.546;2022-12-22T01:12:20;8.00;;;3.95;;
29238;SDS011;16267;48.194;11.546;2022-12-22T01:15:11;8.55;;;4.10;;
29238;SDS011;16267;48.194;11.546;2022-12-22T01:18:02;6.10;;;3.80;;
29238;SDS011;16267;48.194;11.546;2022-12-22T01:20:48;5.50;;;3.47;;
29238;SDS011;16267;48.194;11.546;2022-12-22T01:23:34;4.95;;;3.70;;
29238;SDS011;16267;48.194;11.546;2022-12-22T01:26:19;5.90;;;3.78;;
29238;SDS011;16267;48.194;11.546;2022-12-22T01:29:03;6.57;;;3.85;;
29238;SDS011;16267;48.194;11.546;2022-12-22T01:31:48;6.63;;;3.88;;
29238;SDS011;16267;48.194;11.546;2022-12-22T01:34:32;5.03;;;3.50;;
29238;SDS011;16267;48.194;11.546;2022-12-22T01:37:18;4.85;;;3.40;;
29238;SDS011;16267;48.194;11.546;2022-12-22T01:40:22;5.75;;;3.55;;
29238;SDS011;16267;48.194;11.546;2022-12-22T01:43:18;5.85;;;3.55;;
29238;SDS011;16267;48.194;11.546;2022-12-22T01:49:07;7.28;;;3.83;;
29238;SDS011;16267;48.194;11.546;2022-12-22T01:52:01;3.60;;;2.80;;
29238;SDS011;16267;48.194;11.546;2022-12-22T01:54:47;3.97;;;2.47;;
29238;SDS011;16267;48.194;11.546;2022-12-22T01:57:32;3.97;;;2.58;;
29238;SDS011;16267;48.194;11.546;2022-12-22T02:00:17;3.60;;;2.20;;
29238;SDS011;16267;48.194;11.546;2022-12-22T02:03:02;3.30;;;2.05;;
29238;SDS011;16267;48.194;11.546;2022-12-22T02:05:54;5.35;;;1.90;;
29238;SDS011;16267;48.194;11.546;2022-12-22T02:09:00;4.80;;;1.90;;
29238;SDS011;16267;48.194;11.546;2022-12-22T02:12:31;2.45;;;1.88;;
29238;SDS011;16267;48.194;11.546;2022-12-22T02:18:30;4.47;;;2.15;;
29238;SDS011;16267;48.194;11.546;2022-12-22T02:21:24;2.95;;;2.10;;
29238;SDS011;16267;48.194;11.546;2022-12-22T02:27:08;4.15;;;2.83;;
29238;SDS011;16267;48.194;11.546;2022-12-22T02:29:55;8.15;;;2.92;;
29238;SDS011;16267;48.194;11.546;2022-12-22T02:32:45;3.80;;;2.50;;
29238;SDS011;16267;48.194;11.546;2022-12-22T02:51:23;4.10;;;1.77;;
29238;SDS011;16267;48.194;11.546;2022-12-22T02:54:12;2.97;;;1.70;;
29238;SDS011;16267;48.194;11.546;2022-12-22T02:57:01;6.43;;;2.08;;
29238;SDS011;16267;48.194;11.546;2022-12-22T02:59:57;3.60;;;1.98;;
29238;SDS011;16267;48.194;11.546;2022-12-22T03:02:41;3.22;;;1.98;;
29238;SDS011;16267;48.194;11.546;2022-12-22T03:05:26;3.30;;;2.47;;
29238;SDS011;16267;48.194;11.546;2022-12-22T03:08:10;2.67;;;1.63;;
29238;SDS011;16267;48.194;11.546;2022-12-22T03:10:55;3.60;;;1.83;;
29238;SDS011;16267;48.194;11.546;2022-12-22T03:13:39;2.88;;;1.45;;
29238;SDS011;16267;48.194;11.546;2022-12-22T03:16:24;2.97;;;1.15;;
29238;SDS011;16267;48.194;11.546;2022-12-22T03:19:09;1.77;;;1.30;;
29238;SDS011;16267;48.194;11.546;2022-12-22T03:21:53;2.90;;;1.30;;
29238;SDS011;16267;48.194;11.546;2022-12-22T03:24:38;2.13;;;1.38;;
29238;SDS011;16267;48.194;11.546;2022-12-22T03:27:22;3.33;;;1.35;;
29238;SDS011;16267;48.194;11.546;2022-12-22T03:29:47;1.80;;;1.15;;
29238;SDS011;16267;48.194;11.546;2022-12-22T03:32:13;2.60;;;1.33;;
29238;SDS011;16267;48.194;11.546;2022-12-22T03:34:39;2.88;;;1.30;;
29238;SDS011;16267;48.194;11.546;2022-12-22T03:37:04;1.48;;;1.08;;
29238;SDS011;16267;48.194;11.546;2022-12-22T03:39:30;3.55;;;1.73;;
29238;SDS011;16267;48.194;11.546;2022-12-22T03:41:56;1.45;;;1.10;;
29238;SDS011;16267;48.194;11.546;2022-12-22T03:44:40;2.35;;;1.20;;
29238;SDS011;16267;48.194;11.546;2022-12-22T03:47:27;1.45;;;1.08;;
29238;SDS011;16267;48.194;11.546;2022-12-22T03:49:54;3.10;;;1.30;;
29238;SDS011;16267;48.194;11.546;2022-12-22T03:52:20;3.28;;;1.40;;
29238;SDS011;16267;48.194;11.546;2022-12-22T03:54:46;3.42;;;1.27;;
29238;SDS011;16267;48.194;11.546;2022-12-22T03:57:12;4.93;;;1.48;;
29238;SDS011;16267;48.194;11.546;2022-12-22T03:59:37;2.85;;;1.48;;
29238;SDS011;16267;48.194;11.546;2022-12-22T04:02:03;3.80;;;1.25;;
29238;SDS011;16267;48.194;11.546;2022-12-22T04:04:31;3.95;;;1.20;;
29238;SDS011;16267;48.194;11.546;2022-12-22T04:06:57;3.65;;;1.40;;
29238;SDS011;16267;48.194;11.546;2022-12-22T04:09:22;5.35;;;1.42;;
29238;SDS011;16267;48.194;11.546;2022-12-22T04:11:50;2.08;;;1.08;;
29238;SDS011;16267;48.194;11.546;2022-12-22T04:14:49;3.22;;;1.30;;
29238;SDS011;16267;48.194;11.546;2022-12-22T04:17:14;3.28;;;1.50;;
29238;SDS011;16267;48.194;11.546;2022-12-22T04:19:40;4.38;;;1.23;;
29238;SDS011;16267;48.194;11.546;2022-12-22T04:22:06;2.67;;;0.90;;
29238;SDS011;16267;48.194;11.546;2022-12-22T04:24:32;2.58;;;1.17;;
29238;SDS011;16267;48.194;11.546;2022-12-22T04:26:57;1.90;;;1.35;;
29238;SDS011;16267;48.194;11.546;2022-12-22T04:29:23;1.35;;;0.80;;
29238;SDS011;16267;48.194;11.546;2022-12-22T04:31:49;2.45;;;1.10;;
29238;SDS011;16267;48.194;11.546;2022-12-22T04:34:15;2.92;;;1.33;;
29238;SDS011;16267;48.194;11.546;2022-12-22T04:36:40;2.50;;;1.08;;
29238;SDS011;16267;48.194;11.546;2022-12-22T04:39:06;1.40;;;0.90;;
29238;SDS011;16267;48.194;11.546;2022-12-22T04:41:38;1.60;;;1.13;;
29238;SDS011;16267;48.194;11.546;2022-12-22T04:44:04;4.13;;;1.20;;
29238;SDS011;16267;48.194;11.546;2022-12-22T04:46:30;1.95;;;1.00;;
29238;SDS011;16267;48.194;11.546;2022-12-22T04:48:57;1.48;;;0.88;;
29238;SDS011;16267;48.194;11.546;2022-12-22T04:51:22;1.20;;;0.70;;
29238;SDS011;16267;48.194;11.546;2022-12-22T04:53:48;2.55;;;1.20;;
29238;SDS011;16267;48.194;11.546;2022-12-22T04:56:14;4.63;;;1.20;;
29238;SDS011;16267;48.194;11.546;2022-12-22T04:58:40;2.22;;;0.98;;
29238;SDS011;16267;48.194;11.546;2022-12-22T05:01:09;1.48;;;0.85;;
29238;SDS011;16267;48.194;11.546;2022-12-22T05:03:38;2.85;;;0.73;;
29238;SDS011;16267;48.194;11.546;2022-12-22T05:06:04;1.60;;;0.80;;
29238;SDS011;16267;48.194;11.546;2022-12-22T05:08:30;2.75;;;0.90;;
29238;SDS011;16267;48.194;11.546;2022-12-22T05:11:00;5.38;;;1.30;;
29238;SDS011;16267;48.194;11.546;2022-12-22T05:13:26;1.58;;;0.65;;
29238;SDS011;16267;48.194;11.546;2022-12-22T05:15:53;2.65;;;0.70;;
29238;SDS011;16267;48.194;11.546;2022-12-22T05:18:19;3.20;;;0.63;;
29238;SDS011;16267;48.194;11.546;2022-12-22T05:20:45;1.50;;;0.70;;
29238;SDS011;16267;48.194;11.546;2022-12-22T05:23:11;2.20;;;0.98;;
29238;SDS011;16267;48.194;11.546;2022-12-22T05:25:36;1.83;;;0.70;;
29238;SDS011;16267;48.194;11.546;2022-12-22T05:28:02;1.23;;;0.60;;
29238;SDS011;16267;48.194;11.546;2022-12-22T05:30:36;0.63;;;0.50;;
29238;SDS011;16267;48.194;11.546;2022-12-22T05:33:04;2.10;;;0.68;;
29238;SDS011;16267;48.194;11.546;2022-12-22T05:35:30;1.23;;;0.50;;
29238;SDS011;16267;48.194;11.546;2022-12-22T05:37:56;1.77;;;0.60;;
29238;SDS011;16267;48.194;11.546;2022-12-22T05:40:22;0.60;;;0.60;;
29238;SDS011;16267;48.194;11.546;2022-12-22T05:42:48;2.15;;;1.00;;
29238;SDS011;16267;48.194;11.546;2022-12-22T05:45:15;0.85;;;0.60;;
29238;SDS011;16267;48.194;11.546;2022-12-22T05:47:45;0.82;;;0.60;;
29238;SDS011;16267;48.194;11.546;2022-12-22T05:50:20;0.70;;;0.50;;
29238;SDS011;16267;48.194;11.546;2022-12-22T05:52:48;6.47;;;0.60;;
29238;SDS011;16267;48.194;11.546;2022-12-22T05:55:14;1.48;;;0.65;;
29238;SDS011;16267;48.194;11.546;2022-12-22T05:57:41;6.50;;;0.80;;
29238;SDS011;16267;48.194;11.546;2022-12-22T06:00:08;2.20;;;0.80;;
29238;SDS011;16267;48.194;11.546;2022-12-22T06:02:38;1.10;;;0.60;;
29238;SDS011;16267;48.194;11.546;2022-12-22T06:05:05;1.88;;;0.50;;
29238;SDS011;16267;48.194;11.546;2022-12-22T06:07:31;0.73;;;0.50;;
29238;SDS011;16267;48.194;11.546;2022-12-22T06:09:57;0.40;;;0.35;;
29238;SDS011;16267;48.194;11.546;2022-12-22T06:12:23;1.30;;;0.50;;
29238;SDS011;16267;48.194;11.546;2022-12-22T06:14:49;0.82;;;0.50;;
29238;SDS011;16267;48.194;11.546;2022-12-22T06:17:15;1.08;;;0.60;;
29238;SDS011;16267;48.194;11.546;2022-12-22T06:19:40;2.22;;;0.80;;
29238;SDS011;16267;48.194;11.546;2022-12-22T06:22:06;1.50;;;0.70;;
29238;SDS011;16267;48.194;11.546;2022-12-22T06:24:32;3.45;;;0.50;;
29238;SDS011;16267;48.194;11.546;2022-12-22T06:26:57;1.23;;;0.43;;
29238;SDS011;16267;48.194;11.546;2022-12-22T06:29:23;1.52;;;0.68;;
29238;SDS011;16267;48.194;11.546;2022-12-22T06:31:49;2.30;;;1.13;;
29238;SDS011;16267;48.194;11.546;2022-12-22T06:34:15;1.80;;;0.77;;
29238;SDS011;16267;48.194;11.546;2022-12-22T06:36:44;1.13;;;0.60;;
29238;SDS011;16267;48.194;11.546;2022-12-22T06:39:11;1.33;;;0.65;;
29238;SDS011;16267;48.194;11.546;2022-12-22T06:41:39;0.70;;;0.60;;
29238;SDS011;16267;48.194;11.546;2022-12-22T06:44:23;0.77;;;0.38;;
29238;SDS011;16267;48.194;11.546;2022-12-22T06:46:50;1.92;;;0.70;;
29238;SDS011;16267;48.194;11.546;2022-12-22T06:49:16;2.75;;;0.50;;
29238;SDS011;16267;48.194;11.546;2022-12-22T06:51:42;1.35;;;0.57;;
29238;SDS011;16267;48.194;11.546;2022-12-22T06:54:08;1.15;;;0.40;;
29238;SDS011;16267;48.194;11.546;2022-12-22T06:56:34;3.40;;;0.60;;
29238;SDS011;16267;48.194;11.546;2022-12-22T06:59:00;2.17;;;0.50;;
29238;SDS011;16267;48.194;11.546;2022-12-22T07:01:26;1.52;;;0.60;;
29238;SDS011;16267;48.194;11.546;2022-12-22T07:03:52;3.08;;;0.60;;
29238;SDS011;16267;48.194;11.546;2022-12-22T07:06:17;3.90;;;0.60;;
29238;SDS011;16267;48.194;11.546;2022-12-22T07:08:45;2.08;;;0.60;;
29238;SDS011;16267;48.194;11.546;2022-12-22T07:11:13;4.00;;;0.70;;
29238;SDS011;16267;48.194;11.546;2022-12-22T07:13:39;4.05;;;0.85;;
29238;SDS011;16267;48.194;11.546;2022-12-22T07:16:06;2.40;;;0.70;;
29238;SDS011;16267;48.194;11.546;2022-12-22T07:18:34;1.73;;;0.60;;
29238;SDS011;16267;48.194;11.546;2022-12-22T07:21:04;3.05;;;0.90;;
29238;SDS011;16267;48.194;11.546;2022-12-22T07:23:36;3.70;;;1.10;;
29238;SDS011;16267;48.194;11.546;2022-12-22T07:26:03;3.90;;;0.60;;
29238;SDS011;16267;48.194;11.546;2022-12-22T07:28:32;1.83;;;0.55;;
29238;SDS011;16267;48.194;11.546;2022-12-22T07:30:59;5.18;;;0.80;;
29238;SDS011;16267;48.194;11.546;2022-12-22T07:33:25;4.25;;;1.27;;
29238;SDS011;16267;48.194;11.546;2022-12-22T07:38:38;1.45;;;0.60;;
29238;SDS011;16267;48.194;11.546;2022-12-22T07:41:06;1.50;;;0.70;;
29238;SDS011;16267;48.194;11.546;2022-12-22T07:43:53;2.33;;;0.50;;
29238;SDS011;16267;48.194;11.546;2022-12-22T07:46:22;3.28;;;0.68;;
29238;SDS011;16267;48.194;11.546;2022-12-22T07:48:49;5.53;;;0.70;;
29238;SDS011;16267;48.194;11.546;2022-12-22T07:51:35;3.53;;;0.77;;
29238;SDS011;16267;48.194;11.546;2022-12-22T07:54:06;3.90;;;0.80;;
29238;SDS011;16267;48.194;11.546;2022-12-22T07:56:33;4.63;;;0.70;;
29238;SDS011;16267;48.194;11.546;2022-12-22T07:59:00;5.00;;;1.00;;
29238;SDS011;16267;48.194;11.546;2022-12-22T08:01:26;3.05;;;0.80;;
29238;SDS011;16267;48.194;11.546;2022-12-22T08:03:52;2.15;;;0.73;;
29238;SDS011;16267;48.194;11.546;2022-12-22T08:06:19;2.95;;;0.80;;
29238;SDS011;16267;48.194;11.546;2022-12-22T08:08:45;7.60;;;1.38;;
29238;SDS011;16267;48.194;11.546;2022-12-22T08:11:11;2.75;;;0.80;;
29238;SDS011;16267;48.194;11.546;2022-12-22T08:13:36;7.95;;;1.02;;
29238;SDS011;16267;48.194;11.546;2022-12-22T08:16:03;5.88;;;0.80;;
29238;SDS011;16267;48.194;11.546;2022-12-22T08:18:30;4.50;;;0.93;;
29238;SDS011;16267;48.194;11.546;2022-12-22T08:20:57;2.42;;;1.02;;
29238;SDS011;16267;48.194;11.546;2022-12-22T08:23:23;3.05;;;0.60;;
29238;SDS011;16267;48.194;11.546;2022-12-22T08:25:50;3.03;;;0.85;;
29238;SDS011;16267;48.194;11.546;2022-12-22T08:28:25;2.88;;;0.85;;
29238;SDS011;16267;48.194;11.546;2022-12-22T08:30:53;1.88;;;0.90;;
29238;SDS011;16267;48.194;11.546;2022-12-22T08:33:18;4.35;;;0.80;;
29238;SDS011;16267;48.194;11.546;2022-12-22T08:35:44;1.13;;;0.70;;
29238;SDS011;16267;48.194;11.546;2022-12-22T08:38:10;7.85;;;0.98;;
29238;SDS011;16267;48.194;11.546;2022-12-22T08:40:38;4.05;;;0.93;;
29238;SDS011;16267;48.194;11.546;2022-12-22T08:43:06;5.20;;;0.85;;
29238;SDS011;16267;48.194;11.546;2022-12-22T08:45:33;2.35;;;0.80;;
29238;SDS011;16267;48.194;11.546;2022-12-22T08:48:00;7.40;;;1.10;;
29238;SDS011;16267;48.194;11.546;2022-12-22T08:50:26;9.05;;;0.80;;
29238;SDS011;16267;48.194;11.546;2022-12-22T08:52:52;5.65;;;0.85;;
29238;SDS011;16267;48.194;11.546;2022-12-22T08:55:25;5.43;;;0.85;;
29238;SDS011;16267;48.194;11.546;2022-12-22T08:57:50;5.85;;;0.93;;
29238;SDS011;16267;48.194;11.546;2022-12-22T09:00:16;3.47;;;0.75;;
29238;SDS011;16267;48.194;11.546;2022-12-22T09:02:42;3.78;;;0.90;;
29238;SDS011;16267;48.194;11.546;2022-12-22T09:05:08;29.05;;;9.70;;
29238;SDS011;16267;48.194;11.546;2022-12-22T09:07:34;12.25;;;3.92;;
29238;SDS011;16267;48.194;11.546;2022-12-22T09:09:59;4.00;;;1.80;;
29238;SDS011;16267;48.194;11.546;2022-12-22T09:12:25;4.78;;;1.00;;
29238;SDS011;16267;48.194;11.546;2022-12-22T09:14:51;3.47;;;1.10;;
29238;SDS011;16267;48.194;11.546;2022-12-22T09:17:16;4.18;;;1.05;;
29238;SDS011;16267;48.194;11.546;2022-12-22T09:19:43;7.63;;;0.98;;
29238;SDS011;16267;48.194;11.546;2022-12-22T09:22:09;3.00;;;1.00;;
29238;SDS011;16267;48.194;11.546;2022-12-22T09:24:35;3.75;;;0.88;;
29238;SDS011;16267;48.194;11.546;2022-12-22T09:27:01;4.95;;;1.00;;
29238;SDS011;16267;48.194;11.546;2022-12-22T09:29:27;4.78;;;0.98;;
29238;SDS011;16267;48.194;11.546;2022-12-22T09:31:55;3.58;;;0.98;;
29238;SDS011;16267;48.194;11.546;2022-12-22T09:34:21;2.50;;;0.70;;
29238;SDS011;16267;48.194;11.546;2022-12-22T09:36:47;2.92;;;0.82;;
29238;SDS011;16267;48.194;11.546;2022-12-22T09:39:13;2.90;;;0.75;;
29238;SDS011;16267;48.194;11.546;2022-12-22T09:41:47;4.38;;;1.08;;
29238;SDS011;16267;48.194;11.546;2022-12-22T09:44:25;7.28;;;0.90;;
29238;SDS011;16267;48.194;11.546;2022-12-22T09:47:03;4.53;;;0.73;;
29238;SDS011;16267;48.194;11.546;2022-12-22T09:49:57;10.38;;;1.30;;
29238;SDS011;16267;48.194;11.546;2022-12-22T09:52:45;5.50;;;1.02;;
29238;SDS011;16267;48.194;11.546;2022-12-22T09:55:25;4.60;;;1.20;;
29238;SDS011;16267;48.194;11.546;2022-12-22T09:58:03;3.83;;;1.30;;
29238;SDS011;16267;48.194;11.546;2022-12-22T10:07:35;3.58;;;1.02;;
29238;SDS011;16267;48.194;11.546;2022-12-22T10:10:07;3.63;;;0.93;;
29238;SDS011;16267;48.194;11.546;2022-12-22T10:12:48;3.78;;;0.90;;
29238;SDS011;16267;48.194;11.546;2022-12-22T10:15:27;2.72;;;1.08;;
29238;SDS011;16267;48.194;11.546;2022-12-22T10:20:44;3.60;;;0.70;;
29238;SDS011;16267;48.194;11.546;2022-12-22T10:23:33;3.30;;;0.85;;
29238;SDS011;16267;48.194;11.546;2022-12-22T10:28:46;3.25;;;0.93;;
29238;SDS011;16267;48.194;11.546;2022-12-22T10:31:24;5.97;;;1.00;;
29238;SDS011;16267;48.194;11.546;2022-12-22T10:33:56;3.78;;;0.88;;
29238;SDS011;16267;48.194;11.546;2022-12-22T10:36:50;3.50;;;0.60;;
29238;SDS011;16267;48.194;11.546;2022-12-22T10:39:23;4.10;;;0.90;;
29238;SDS011;16267;48.194;11.546;2022-12-22T10:42:06;5.05;;;1.00;;
29238;SDS011;16267;48.194;11.546;2022-12-22T10:44:37;4.63;;;1.10;;
29238;SDS011;16267;48.194;11.546;2022-12-22T10:47:10;3.63;;;0.80;;
29238;SDS011;16267;48.194;11.546;2022-12-22T10:49:46;3.63;;;0.80;;
29238;SDS011;16267;48.194;11.546;2022-12-22T10:52:21;4.57;;;1.33;;
29238;SDS011;16267;48.194;11.546;2022-12-22T10:55:12;4.90;;;1.20;;
29238;SDS011;16267;48.194;11.546;2022-12-22T11:00:34;3.50;;;1.08;;
29238;SDS011;16267;48.194;11.546;2022-12-22T11:03:03;8.55;;;1.90;;
29238;SDS011;16267;48.194;11.546;2022-12-22T11:05:31;3.75;;;0.88;;
29238;SDS011;16267;48.194;11.546;2022-12-22T11:08:16;6.30;;;1.00;;
29238;SDS011;16267;48.194;11.546;2022-12-22T11:14:22;4.65;;;1.10;;
29238;SDS011;16267;48.194;11.546;2022-12-22T11:20:09;5.65;;;0.98;;
29238;SDS011;16267;48.194;11.546;2022-12-22T11:40:37;5.72;;;1.38;;
29238;SDS011;16267;48.194;11.546;2022-12-22T11:43:22;5.70;;;0.90;;
29238;SDS011;16267;48.194;11.546;2022-12-22T11:52:06;9.07;;;1.45;;
29238;SDS011;16267;48.194;11.546;2022-12-22T12:03:53;8.25;;;1.25;;
29238;SDS011;16267;48.194;11.546;2022-12-22T12:06:27;7.13;;;1.55;;
29238;SDS011;16267;48.194;11.546;2022-12-22T12:12:12;5.60;;;1.38;;
29238;SDS011;16267;48.194;11.546;2022-12-22T12:26:30;5.90;;;1.13;;
29238;SDS011;16267;48.194;11.546;2022-12-22T12:31:41;8.73;;;1.42;;
29238;SDS011;16267;48.194;11.546;2022-12-22T12:34:14;9.02;;;1.67;;
29238;SDS011;16267;48.194;11.546;2022-12-22T12:45:19;9.20;;;1.67;;
29238;SDS011;16267;48.194;11.546;2022-12-22T12:50:50;5.72;;;1.83;;
29238;SDS011;16267;48.194;11.546;2022-12-22T12:53:17;14.98;;;2.20;;
29238;SDS011;16267;48.194;11.546;2022-12-22T12:58:45;8.10;;;1.40;;
29238;SDS011;16267;48.194;11.546;2022-12-22T13:00:59;10.43;;;1.50;;
29238;SDS011;16267;48.194;11.546;2022-12-22T13:05:54;10.27;;;1.50;;
29238;SDS011;16267;48.194;11.546;2022-12-22T13:16:35;6.50;;;1.42;;
29238;SDS011;16267;48.194;11.546;2022-12-22T13:18:44;10.05;;;1.77;;
29238;SDS011;16267;48.194;11.546;2022-12-22T13:21:13;8.05;;;1.35;;
29238;SDS011;16267;48.194;11.546;2022-12-22T13:23:56;8.10;;;1.55;;
29238;SDS011;16267;48.194;11.546;2022-12-22T13:26:50;9.63;;;1.42;;
29238;SDS011;16267;48.194;11.546;2022-12-22T13:29:35;11.98;;;2.13;;
29238;SDS011;16267;48.194;11.546;2022-12-22T13:32:32;5.75;;;1.45;;
29238;SDS011;16267;48.194;11.546;2022-12-22T13:35:02;11.10;;;1.55;;
29238;SDS011;16267;48.194;11.546;2022-12-22T13:37:40;8.88;;;1.23;;
29238;SDS011;16267;48.194;11.546;2022-12-22T13:40:21;4.28;;;1.63;;
29238;SDS011;16267;48.194;11.546;2022-12-22T13:43:11;5.30;;;1.20;;
29238;SDS011;16267;48.194;11.546;2022-12-22T13:50:57;8.45;;;1.98;;
29238;SDS011;16267;48.194;11.546;2022-12-22T13:53:29;9.55;;;1.55;;
29238;SDS011;16267;48.194;11.546;2022-12-22T13:56:04;8.60;;;2.17;;
29238;SDS011;16267;48.194;11.546;2022-12-22T13:58:34;8.60;;;1.52;;
29238;SDS011;16267;48.194;11.546;2022-12-22T14:03:37;10.23;;;2.27;;
29238;SDS011;16267;48.194;11.546;2022-12-22T14:09:41;13.80;;;2.00;;
29238;SDS011;16267;48.194;11.546;2022-12-22T14:12:02;11.32;;;2.72;;
29238;SDS011;16267;48.194;11.546;2022-12-22T14:14:37;16.25;;;3.00;;
29238;SDS011;16267;48.194;11.546;2022-12-22T14:19:58;10.77;;;2.40;;
29238;SDS011;16267;48.194;11.546;2022-12-22T14:22:37;10.82;;;2.72;;
29238;SDS011;16267;48.194;11.546;2022-12-22T14:25:13;10.43;;;2.80;;
29238;SDS011;16267;48.194;11.546;2022-12-22T14:27:52;17.10;;;4.60;;
29238;SDS011;16267;48.194;11.546;2022-12-22T14:32:51;15.38;;;3.10;;
29238;SDS011;16267;48.194;11.546;2022-12-22T14:37:48;11.93;;;2.70;;
29238;SDS011;16267;48.194;11.546;2022-12-22T14:40:43;13.23;;;2.90;;
29238;SDS011;16267;48.194;11.546;2022-12-22T14:43:18;13.73;;;2.95;;
29238;SDS011;16267;48.194;11.546;2022-12-22T14:45:46;13.95;;;3.45;;
29238;SDS011;16267;48.194;11.546;2022-12-22T14:51:17;12.77;;;3.20;;
29238;SDS011;16267;48.194;11.546;2022-12-22T14:56:17;12.90;;;2.67;;
29238;SDS011;16267;48.194;11.546;2022-12-22T14:58:44;14.85;;;3.25;;
29238;SDS011;16267;48.194;11.546;2022-12-22T15:01:22;22.00;;;3.58;;
29238;SDS011;16267;48.194;11.546;2022-12-22T15:03:58;14.23;;;3.00;;
29238;SDS011;16267;48.194;11.546;2022-12-22T15:11:33;14.13;;;2.72;;
29238;SDS011;16267;48.194;11.546;2022-12-22T15:14:02;14.48;;;2.58;;
29238;SDS011;16267;48.194;11.546;2022-12-22T15:16:29;16.40;;;3.10;;
29238;SDS011;16267;48.194;11.546;2022-12-22T15:18:55;12.05;;;2.95;;
29238;SDS011;16267;48.194;11.546;2022-12-22T15:21:21;14.90;;;3.20;;
29238;SDS011;16267;48.194;11.546;2022-12-22T15:23:48;14.25;;;3.80;;
29238;SDS011;16267;48.194;11.546;2022-12-22T15:26:14;15.40;;;2.33;;
29238;SDS011;16267;48.194;11.546;2022-12-22T15:28:39;17.60;;;3.95;;
29238;SDS011;16267;48.194;11.546;2022-12-22T15:31:09;13.40;;;3.78;;
29238;SDS011;16267;48.194;11.546;2022-12-22T15:33:39;13.15;;;3.38;;
29238;SDS011;16267;48.194;11.546;2022-12-22T15:36:08;14.50;;;3.35;;
29238;SDS011;16267;48.194;11.546;2022-12-22T15:38:37;13.20;;;2.70;;
29238;SDS011;16267;48.194;11.546;2022-12-22T15:41:04;8.95;;;2.60;;
29238;SDS011;16267;48.194;11.546;2022-12-22T15:43:33;13.65;;;2.60;;
29238;SDS011;16267;48.194;11.546;2022-12-22T15:46:02;10.60;;;2.42;;
29238;SDS011;16267;48.194;11.546;2022-12-22T15:48:30;18.00;;;3.13;;
29238;SDS011;16267;48.194;11.546;2022-12-22T15:51:04;13.65;;;2.72;;
29238;SDS011;16267;48.194;11.546;2022-12-22T15:53:36;10.65;;;2.53;;
29238;SDS011;16267;48.194;11.546;2022-12-22T15:56:02;11.38;;;2.15;;
29238;SDS011;16267;48.194;11.546;2022-12-22T15:58:32;12.85;;;3.03;;
29238;SDS011;16267;48.194;11.546;2022-12-22T16:01:00;13.13;;;3.20;;
29238;SDS011;16267;48.194;11.546;2022-12-22T16:03:26;10.60;;;2.38;;
29238;SDS011;16267;48.194;11.546;2022-12-22T16:05:51;8.85;;;2.22;;
29238;SDS011;16267;48.194;11.546;2022-12-22T16:08:29;21.10;;;3.55;;
29238;SDS011;16267;48.194;11.546;2022-12-22T16:11:00;13.40;;;2.42;;
29238;SDS011;16267;48.194;11.546;2022-12-22T16:13:27;13.40;;;2.22;;
29238;SDS011;16267;48.194;11.546;2022-12-22T16:15:53;7.25;;;1.80;;
29238;SDS011;16267;48.194;11.546;2022-12-22T16:18:20;8.30;;;1.88;;
29238;SDS011;16267;48.194;11.546;2022-12-22T16:20:45;15.43;;;2.65;;
29238;SDS011;16267;48.194;11.546;2022-12-22T16:23:24;10.70;;;2.10;;
29238;SDS011;16267;48.194;11.546;2022-12-22T16:25:52;10.07;;;2.10;;
29238;SDS011;16267;48.194;11.546;2022-12-22T16:28:20;6.63;;;1.38;;
29238;SDS011;16267;48.194;11.546;2022-12-22T16:30:49;9.15;;;2.25;;
29238;SDS011;16267;48.194;11.546;2022-12-22T16:33:16;11.60;;;1.80;;
29238;SDS011;16267;48.194;11.546;2022-12-22T16:35:43;7.50;;;1.70;;
29238;SDS011;16267;48.194;11.546;2022-12-22T16:38:08;7.53;;;1.80;;
29238;SDS011;16267;48.194;11.546;2022-12-22T16:40:42;10.70;;;1.98;;
29238;SDS011;16267;48.194;11.546;2022-12-22T16:43:19;12.10;;;1.95;;
29238;SDS011;16267;48.194;11.546;2022-12-22T16:45:54;6.82;;;1.63;;
29238;SDS011;16267;48.194;11.546;2022-12-22T16:48:29;10.52;;;2.53;;
29238;SDS011;16267;48.194;11.546;2022-12-22T16:51:03;7.10;;;1.30;;
29238;SDS011;16267;48.194;11.546;2022-12-22T16:53:30;9.73;;;1.83;;
29238;SDS011;16267;48.194;11.546;2022-12-22T16:55:56;11.85;;;1.90;;
29238;SDS011;16267;48.194;11.546;2022-12-22T16:58:25;9.80;;;2.25;;
29238;SDS011;16267;48.194;11.546;2022-12-22T17:00:51;6.68;;;1.27;;
29238;SDS011;16267;48.194;11.546;2022-12-22T17:03:18;11.90;;;1.85;;
29238;SDS011;16267;48.194;11.546;2022-12-22T17:08:19;10.73;;;1.88;;
29238;SDS011;16267;48.194;11.546;2022-12-22T17:10:52;7.88;;;1.77;;
29238;SDS011;16267;48.194;11.546;2022-12-22T17:13:20;8.63;;;1.95;;
29238;SDS011;16267;48.194;11.546;2022-12-22T17:15:46;9.43;;;1.90;;
29238;SDS011;16267;48.194;11.546;2022-12-22T17:18:16;9.02;;;1.67;;
29238;SDS011;16267;48.194;11.546;2022-12-22T17:20:46;9.30;;;2.05;;
29238;SDS011;16267;48.194;11.546;2022-12-22T17:25:54;13.57;;;2.20;;
29238;SDS011;16267;48.194;11.546;2022-12-22T17:28:22;11.70;;;2.50;;
29238;SDS011;16267;48.194;11.546;2022-12-22T17:30:48;12.38;;;2.20;;
29238;SDS011;16267;48.194;11.546;2022-12-22T17:33:14;10.50;;;1.92;;
29238;SDS011;16267;48.194;11.546;2022-12-22T17:35:41;11.13;;;2.05;;
29238;SDS011;16267;48.194;11.546;2022-12-22T17:38:14;11.52;;;2.30;;
29238;SDS011;16267;48.194;11.546;2022-12-22T17:40:43;13.05;;;2.15;;
29238;SDS011;16267;48.194;11.546;2022-12-22T17:43:15;11.00;;;2.10;;
29238;SDS011;16267;48.194;11.546;2022-12-22T17:45:43;13.23;;;3.08;;
29238;SDS011;16267;48.194;11.546;2022-12-22T17:48:10;12.15;;;3.95;;
29238;SDS011;16267;48.194;11.546;2022-12-22T17:50:38;10.40;;;2.50;;
29238;SDS011;16267;48.194;11.546;2022-12-22T17:53:05;8.90;;;1.92;;